createdAt,value
2019-05-15T00:01:08.908Z,2.30
2019-05-15T00:03:39.119Z,1.93
2019-05-15T00:06:08.785Z,1.73
2019-05-15T00:08:38.627Z,1.60
2019-05-15T00:11:08.392Z,1.73
2019-05-15T00:13:38.875Z,1.80
2019-05-15T00:16:08.733Z,1.60
2019-05-15T00:18:39.052Z,2.30
2019-05-15T00:21:09.443Z,2.17
2019-05-15T00:23:38.966Z,1.70
2019-05-15T00:26:10.577Z,1.60
2019-05-15T00:28:40.438Z,1.80
2019-05-15T00:31:09.582Z,1.90
2019-05-15T00:33:39.521Z,1.97
2019-05-15T00:36:08.805Z,1.97
2019-05-15T00:38:39.003Z,1.83
2019-05-15T00:41:09.421Z,1.93
2019-05-15T00:43:38.879Z,2.13
2019-05-15T00:46:09.214Z,2.00
2019-05-15T00:48:39.833Z,2.50
2019-05-15T00:51:09.196Z,2.43
2019-05-15T00:53:38.985Z,2.40
2019-05-15T00:56:08.895Z,1.90
2019-05-15T00:58:40.183Z,2.17
2019-05-15T01:01:09.150Z,2.07
2019-05-15T01:03:38.827Z,2.60
2019-05-15T01:06:15.551Z,2.20
2019-05-15T01:08:44.598Z,2.77
2019-05-15T01:11:13.753Z,2.53
2019-05-15T01:13:42.950Z,2.43
2019-05-15T01:16:12.173Z,2.23
2019-05-15T01:18:41.289Z,3.83
2019-05-15T01:21:10.431Z,2.90
2019-05-15T01:23:39.832Z,2.63
2019-05-15T01:26:09.127Z,2.40
2019-05-15T01:28:38.542Z,2.17
2019-05-15T01:31:08.520Z,2.33
2019-05-15T01:33:39.083Z,2.40
2019-05-15T01:36:08.710Z,2.50
2019-05-15T01:38:59.679Z,2.07
2019-05-15T01:41:29.701Z,2.40
2019-05-15T01:44:00.047Z,2.10
2019-05-15T01:46:30.278Z,1.80
2019-05-15T01:49:07.938Z,1.70
2019-05-15T01:51:39.004Z,2.07
2019-05-15T01:54:09.216Z,1.70
2019-05-15T01:56:38.789Z,2.00
2019-05-15T01:59:08.785Z,2.63
2019-05-15T02:01:40.529Z,2.67
2019-05-15T02:04:09.651Z,2.23
2019-05-15T02:06:39.206Z,2.20
2019-05-15T02:09:08.677Z,2.53
2019-05-15T02:11:38.297Z,2.43
2019-05-15T02:14:08.281Z,2.17
2019-05-15T02:16:41.048Z,2.10
2019-05-15T02:19:10.286Z,2.83
2019-05-15T02:21:39.445Z,1.93
2019-05-15T02:24:08.561Z,1.93
2019-05-15T02:26:38.835Z,2.00
2019-05-15T02:29:10.488Z,1.93
2019-05-15T02:31:39.288Z,2.60
2019-05-15T02:34:10.055Z,1.90
2019-05-15T02:36:40.251Z,2.23
2019-05-15T02:39:09.619Z,2.47
2019-05-15T02:41:41.162Z,2.40
2019-05-15T02:44:13.304Z,2.30
2019-05-15T02:46:44.772Z,2.03
2019-05-15T02:49:19.036Z,2.70
2019-05-15T02:51:49.563Z,2.60
2019-05-15T02:54:29.609Z,2.17
2019-05-15T02:56:59.005Z,2.97
2019-05-15T02:59:30.266Z,3.10
2019-05-15T03:01:59.687Z,2.37
2019-05-15T03:04:29.236Z,2.33
2019-05-15T03:07:00.281Z,2.50
2019-05-15T03:09:29.924Z,2.40
2019-05-15T03:11:59.100Z,2.23
2019-05-15T03:14:29.330Z,2.53
2019-05-15T03:16:59.830Z,3.13
2019-05-15T03:19:30.039Z,2.83
2019-05-15T03:21:59.985Z,2.70
2019-05-15T03:24:29.300Z,3.30
2019-05-15T03:26:59.289Z,2.43
2019-05-15T03:29:29.335Z,2.30
2019-05-15T03:32:25.607Z,2.10
2019-05-15T03:34:47.579Z,1.80
2019-05-15T03:37:21.495Z,2.70
2019-05-15T03:39:51.334Z,3.03
2019-05-15T03:42:19.141Z,2.20
2019-05-15T03:44:50.137Z,2.57
2019-05-15T03:47:19.646Z,2.50
2019-05-15T03:49:49.397Z,2.03
2019-05-15T03:52:19.252Z,2.33
2019-05-15T03:54:49.549Z,1.80
2019-05-15T03:57:22.547Z,3.10
2019-05-15T03:59:49.603Z,2.83
2019-05-15T04:02:19.346Z,2.77
2019-05-15T04:04:50.099Z,2.23
2019-05-15T04:07:19.500Z,2.33
2019-05-15T04:09:49.395Z,2.40
2019-05-15T04:12:19.679Z,2.47
2019-05-15T04:14:50.090Z,2.57
2019-05-15T04:17:19.907Z,2.40
2019-05-15T04:19:59.852Z,2.83
2019-05-15T04:22:29.313Z,3.20
2019-05-15T04:24:59.364Z,2.20
2019-05-15T04:27:29.130Z,3.10
2019-05-15T04:29:59.223Z,2.60
2019-05-15T04:32:29.010Z,2.20
2019-05-15T04:34:59.317Z,2.20
2019-05-15T04:37:29.910Z,3.10
2019-05-15T04:40:04.006Z,2.43
2019-05-15T04:42:33.035Z,2.47
2019-05-15T04:45:01.970Z,2.40
2019-05-15T04:47:30.993Z,2.40
2019-05-15T04:50:01.182Z,2.40
2019-05-15T04:52:43.672Z,2.60
2019-05-15T04:55:12.776Z,2.40
2019-05-15T04:57:45.155Z,2.53
2019-05-15T05:00:14.287Z,2.23
2019-05-15T05:02:43.352Z,3.23
2019-05-15T05:05:12.391Z,2.77
2019-05-15T05:07:41.497Z,2.50
2019-05-15T05:10:10.510Z,2.30
2019-05-15T05:12:41.707Z,2.70
2019-05-15T05:15:10.406Z,2.30
2019-05-15T05:17:39.602Z,2.10
2019-05-15T05:20:08.746Z,2.30
2019-05-15T05:22:39.194Z,2.97
2019-05-15T05:25:08.841Z,2.57
2019-05-15T05:27:38.506Z,2.60
2019-05-15T05:30:08.471Z,2.27
2019-05-15T05:32:39.345Z,2.13
2019-05-15T05:35:08.740Z,2.67
2019-05-15T05:37:43.678Z,2.43
2019-05-15T05:40:12.694Z,3.07
2019-05-15T05:42:41.753Z,2.40
2019-05-15T05:45:10.676Z,2.40
2019-05-15T05:47:39.796Z,2.10
2019-05-15T05:50:08.834Z,2.40
2019-05-15T05:52:38.975Z,2.07
2019-05-15T05:55:11.901Z,2.10
2019-05-15T05:57:45.945Z,2.10
2019-05-15T06:00:18.244Z,2.30
2019-05-15T06:02:51.900Z,1.90
2019-05-15T06:05:19.038Z,2.10
2019-05-15T06:07:48.779Z,2.30
2019-05-15T06:10:18.255Z,2.10
2019-05-15T06:12:49.045Z,2.20
2019-05-15T06:15:18.246Z,2.10
2019-05-15T06:17:48.140Z,2.60
2019-05-15T06:20:18.529Z,1.70
2019-05-15T06:22:47.963Z,1.90
2019-05-15T06:25:19.819Z,1.80
2019-05-15T06:27:48.218Z,1.60
2019-05-15T06:30:22.067Z,2.10
2019-05-15T06:33:01.860Z,1.87
2019-05-15T06:35:19.475Z,2.07
2019-05-15T06:37:48.536Z,1.87
2019-05-15T06:40:18.324Z,1.80
2019-05-15T06:42:48.340Z,1.63
2019-05-15T06:45:18.897Z,2.00
2019-05-15T06:47:48.297Z,2.00
2019-05-15T06:50:31.685Z,1.70
2019-05-15T06:53:00.709Z,2.30
2019-05-15T06:55:29.738Z,1.90
2019-05-15T06:57:58.756Z,1.83
2019-05-15T07:00:28.334Z,1.97
2019-05-15T07:02:58.310Z,1.93
2019-05-15T07:05:29.491Z,1.70
2019-05-15T07:07:58.598Z,1.70
2019-05-15T07:10:28.782Z,1.60
2019-05-15T07:12:58.490Z,1.70
2019-05-15T07:15:27.930Z,1.60
2019-05-15T07:17:58.007Z,1.57
2019-05-15T07:20:28.535Z,1.40
2019-05-15T07:22:58.633Z,1.40
2019-05-15T07:25:29.382Z,1.60
2019-05-15T07:27:59.199Z,1.50
2019-05-15T07:30:28.794Z,2.27
2019-05-15T07:32:58.710Z,1.77
2019-05-15T07:35:28.816Z,1.77
2019-05-15T07:37:58.620Z,1.47
2019-05-15T07:40:29.201Z,1.50
2019-05-15T07:42:58.821Z,2.13
2019-05-15T07:45:28.254Z,1.97
2019-05-15T07:47:58.491Z,1.60
2019-05-15T07:50:29.856Z,1.90
2019-05-15T07:52:59.082Z,1.40
2019-05-15T07:55:29.623Z,1.80
2019-05-15T07:57:59.216Z,1.53
2019-05-15T08:00:28.865Z,1.73
2019-05-15T08:02:58.597Z,1.60
2019-05-15T08:05:28.559Z,1.70
2019-05-15T08:07:58.169Z,1.77
2019-05-15T08:10:28.430Z,1.50
2019-05-15T08:12:58.144Z,1.43
2019-05-15T08:15:28.640Z,1.50
2019-05-15T08:18:08.159Z,2.20
2019-05-15T08:20:28.946Z,1.50
2019-05-15T08:22:58.328Z,1.37
2019-05-15T08:25:34.838Z,1.37
2019-05-15T08:27:59.186Z,1.47
2019-05-15T08:30:28.856Z,1.70
2019-05-15T08:32:58.915Z,1.40
2019-05-15T08:35:29.264Z,1.47
2019-05-15T08:37:58.536Z,1.53
2019-05-15T08:40:28.495Z,1.60
2019-05-15T08:43:01.871Z,1.53
2019-05-15T08:45:28.399Z,1.50
2019-05-15T08:47:58.598Z,1.63
2019-05-15T08:50:28.826Z,1.60
2019-05-15T08:52:58.169Z,1.53
2019-05-15T08:55:28.151Z,2.43
2019-05-15T08:58:07.885Z,1.50
2019-05-15T09:00:29.422Z,1.27
2019-05-15T09:02:58.522Z,1.60
2019-05-15T09:05:28.278Z,1.67
2019-05-15T09:07:58.079Z,1.80
2019-05-15T09:10:28.799Z,1.40
2019-05-15T09:12:58.672Z,1.60
2019-05-15T09:15:29.336Z,1.60
2019-05-15T09:18:11.083Z,1.40
2019-05-15T09:20:29.198Z,2.00
2019-05-15T09:22:58.408Z,1.83
2019-05-15T09:25:28.777Z,1.63
2019-05-15T09:27:57.994Z,1.63
2019-05-15T09:30:28.611Z,1.70
2019-05-15T09:32:58.849Z,1.80
2019-05-15T09:35:28.043Z,1.70
2019-05-15T09:37:58.292Z,1.80
2019-05-15T09:40:42.410Z,1.77
2019-05-15T09:42:58.205Z,1.70
2019-05-15T09:45:28.611Z,1.90
2019-05-15T09:47:58.776Z,1.40
2019-05-15T09:50:28.322Z,1.73
2019-05-15T09:52:58.822Z,1.77
2019-05-15T09:55:28.530Z,1.77
2019-05-15T09:57:59.047Z,2.07
2019-05-15T10:00:29.202Z,1.70
2019-05-15T10:02:58.371Z,2.00
2019-05-15T10:05:28.140Z,1.50
2019-05-15T10:07:57.257Z,1.97
2019-05-15T10:10:28.320Z,1.47
2019-05-15T10:12:59.446Z,1.50
2019-05-15T10:15:27.746Z,1.67
2019-05-15T10:17:59.536Z,1.47
2019-05-15T10:20:29.177Z,1.43
2019-05-15T10:22:59.001Z,1.70
2019-05-15T10:25:28.260Z,1.70
2019-05-15T10:27:57.988Z,1.40
2019-05-15T10:30:28.388Z,1.67
2019-05-15T10:32:57.527Z,1.83
2019-05-15T10:35:31.069Z,1.63
2019-05-15T10:37:59.165Z,1.73
2019-05-15T10:40:29.541Z,1.93
2019-05-15T10:42:59.502Z,1.90
2019-05-15T10:45:29.579Z,1.50
2019-05-15T10:47:58.802Z,1.50
2019-05-15T10:50:28.555Z,1.80
2019-05-15T10:52:57.736Z,1.70
2019-05-15T10:55:28.800Z,1.60
2019-05-15T10:57:57.539Z,1.60
2019-05-15T11:00:28.573Z,1.57
2019-05-15T11:02:57.974Z,1.83
2019-05-15T11:05:40.636Z,1.70
2019-05-15T11:07:58.898Z,2.00
2019-05-15T11:10:29.016Z,2.63
2019-05-15T11:12:58.510Z,1.70
2019-05-15T11:15:29.044Z,1.90
2019-05-15T11:17:58.528Z,1.73
2019-05-15T11:20:27.561Z,1.83
2019-05-15T11:22:58.978Z,1.60
2019-05-15T11:25:29.931Z,1.77
2019-05-15T11:27:59.035Z,1.97
2019-05-15T11:30:28.248Z,2.00
2019-05-15T11:32:58.701Z,1.80
2019-05-15T11:35:28.492Z,2.20
2019-05-15T11:37:57.659Z,1.60
2019-05-15T11:40:28.373Z,1.60
2019-05-15T11:42:57.728Z,1.80
2019-05-15T11:45:28.966Z,1.60
2019-05-15T11:48:00.815Z,1.70
2019-05-15T11:50:29.328Z,1.60
2019-05-15T11:52:58.685Z,1.53
2019-05-15T11:55:29.182Z,1.73
2019-05-15T11:57:59.407Z,1.60
2019-05-15T12:00:30.356Z,1.87
2019-05-15T12:02:59.529Z,1.53
2019-05-15T12:05:28.885Z,1.80
2019-05-15T12:07:57.977Z,1.77
2019-05-15T12:10:28.939Z,1.50
2019-05-15T12:12:57.715Z,1.50
2019-05-15T12:15:27.950Z,1.27
2019-05-15T12:17:59.182Z,1.70
2019-05-15T12:20:28.717Z,1.80
2019-05-15T12:22:59.428Z,1.50
2019-05-15T12:28:00.263Z,1.73
2019-05-15T12:30:29.728Z,1.83
2019-05-15T12:33:00.344Z,1.63
2019-05-15T12:35:29.687Z,1.47
2019-05-15T12:37:59.319Z,1.83
2019-05-15T13:00:34.781Z,1.80
2019-05-15T13:03:03.762Z,1.87
2019-05-15T13:05:32.774Z,2.37
2019-05-15T13:08:02.119Z,1.60
2019-05-15T13:10:38.412Z,1.70
2019-05-15T13:13:09.648Z,1.70
2019-05-15T13:15:40.781Z,1.90
2019-05-15T13:18:13.935Z,2.20
2019-05-15T13:20:39.396Z,1.70
2019-05-15T13:23:08.482Z,1.80
2019-05-15T13:25:39.570Z,1.93
2019-05-15T13:28:08.827Z,2.03
2019-05-15T13:30:41.345Z,1.80
2019-05-15T13:33:10.124Z,1.70
2019-05-15T13:35:39.379Z,1.83
2019-05-15T13:38:09.926Z,1.97
2019-05-15T13:40:42.449Z,2.10
2019-05-15T13:43:10.120Z,2.03
2019-05-15T13:45:39.260Z,1.57
2019-05-15T13:48:08.923Z,2.07
2019-05-15T13:50:40.191Z,1.73
2019-05-15T13:53:10.708Z,2.10
2019-05-15T13:55:42.764Z,2.00
2019-05-15T13:58:10.644Z,1.90
2019-05-15T14:00:39.771Z,2.27
2019-05-15T14:03:11.172Z,3.07
2019-05-15T14:05:40.335Z,1.90
2019-05-15T14:08:09.419Z,1.73
2019-05-15T14:10:38.798Z,2.10
2019-05-15T14:13:08.021Z,1.73
2019-05-15T14:15:38.341Z,2.20
2019-05-15T14:18:08.564Z,1.70
2019-05-15T14:20:38.770Z,2.10
2019-05-15T14:23:08.753Z,1.70
2019-05-15T14:25:38.814Z,1.80
2019-05-15T14:28:08.903Z,1.80
2019-05-15T14:30:38.178Z,2.00
2019-05-15T14:33:08.495Z,2.20
2019-05-15T14:35:38.142Z,1.80
2019-05-15T14:38:10.226Z,1.83
2019-05-15T14:40:38.097Z,1.40
2019-05-15T14:43:09.015Z,1.80
2019-05-15T14:45:38.813Z,1.80
2019-05-15T14:48:08.911Z,1.67
2019-05-15T14:50:38.704Z,2.03
2019-05-15T14:53:09.524Z,2.43
2019-05-15T14:55:44.030Z,2.03
2019-05-15T14:58:09.486Z,1.57
2019-05-15T15:00:41.358Z,1.70
2019-05-15T15:03:10.005Z,2.07
2019-05-15T15:05:39.153Z,1.83
2019-05-15T15:08:20.843Z,1.57
2019-05-15T15:10:38.859Z,1.60
2019-05-15T15:13:09.235Z,1.97
2019-05-15T15:15:38.724Z,2.17
2019-05-15T15:18:09.200Z,1.60
2019-05-15T15:20:38.271Z,1.63
2019-05-15T15:23:08.424Z,1.70
2019-05-15T15:25:39.831Z,1.90
2019-05-15T15:28:08.704Z,1.80
2019-05-15T15:30:38.506Z,1.80
2019-05-15T15:33:08.552Z,1.73
2019-05-15T15:35:38.353Z,1.60
2019-05-15T15:38:13.160Z,1.50
2019-05-15T15:40:38.959Z,1.80
2019-05-15T15:43:08.829Z,1.80
2019-05-15T15:45:39.169Z,1.90
2019-05-15T15:48:08.656Z,2.03
2019-05-15T15:50:38.301Z,1.73
2019-05-15T15:53:08.796Z,1.70
2019-05-15T15:55:38.743Z,1.90
2019-05-15T15:58:08.816Z,1.90
2019-05-15T16:00:38.746Z,2.80
2019-05-15T16:03:08.496Z,1.70
2019-05-15T16:05:38.486Z,1.93
2019-05-15T16:08:08.507Z,2.03
2019-05-15T16:10:38.224Z,1.73
2019-05-15T16:13:09.160Z,1.70
2019-05-15T16:15:38.521Z,1.80
2019-05-15T16:18:08.937Z,1.70
2019-05-15T16:20:39.497Z,1.60
2019-05-15T16:23:09.026Z,1.60
2019-05-15T16:25:38.719Z,2.30
2019-05-15T16:28:08.820Z,1.70
2019-05-15T16:30:50.369Z,1.87
2019-05-15T16:33:09.896Z,1.70
2019-05-15T16:35:39.455Z,1.63
2019-05-15T16:38:09.352Z,2.13
2019-05-15T16:40:38.951Z,2.50
2019-05-15T16:43:08.033Z,1.90
2019-05-15T16:45:38.837Z,1.80
2019-05-15T16:48:09.472Z,1.93
2019-05-15T16:50:39.039Z,1.97
2019-05-15T16:53:09.265Z,1.90
2019-05-15T16:55:38.471Z,1.70
2019-05-15T16:58:09.311Z,2.10
2019-05-15T17:00:38.598Z,1.67
2019-05-15T17:03:14.305Z,1.87
2019-05-15T17:05:38.967Z,1.87
2019-05-15T17:08:09.087Z,1.80
2019-05-15T17:10:38.861Z,1.60
2019-05-15T17:13:08.899Z,1.60
2019-05-15T17:15:38.740Z,1.50
2019-05-15T17:18:08.991Z,1.90
2019-05-15T17:20:38.306Z,1.50
2019-05-15T17:23:08.693Z,1.60
2019-05-15T17:25:38.366Z,1.47
2019-05-15T17:28:09.148Z,1.60
2019-05-15T17:30:38.478Z,1.70
2019-05-15T17:33:07.600Z,1.67
2019-05-15T17:35:38.054Z,1.37
2019-05-15T17:38:07.376Z,2.40
2019-05-15T17:40:37.812Z,2.33
2019-05-15T17:43:09.440Z,1.93
2019-05-15T17:45:38.966Z,1.50
2019-05-15T17:48:08.627Z,1.20
2019-05-15T17:50:48.400Z,1.30
2019-05-15T17:53:09.532Z,1.70
2019-05-15T17:55:39.010Z,1.70
2019-05-15T17:58:31.004Z,1.30
2019-05-15T18:01:08.684Z,1.10
2019-05-15T18:03:39.239Z,1.50
2019-05-15T18:06:08.217Z,1.20
2019-05-15T18:08:39.099Z,1.30
2019-05-15T18:11:08.272Z,1.27
2019-05-15T18:13:44.334Z,1.30
2019-05-15T18:16:13.975Z,1.40
2019-05-15T18:18:45.017Z,1.40
2019-05-15T18:21:18.219Z,1.30
2019-05-15T18:23:49.365Z,1.33
2019-05-15T18:26:18.523Z,1.30
2019-05-15T18:28:48.908Z,1.60
2019-05-15T18:31:22.957Z,1.60
2019-05-15T18:34:18.933Z,1.40
2019-05-15T18:36:48.475Z,1.97
2019-05-15T18:39:22.383Z,1.37
2019-05-15T18:41:57.809Z,1.20
2019-05-15T18:44:28.346Z,1.57
2019-05-15T18:46:58.185Z,1.30
2019-05-15T18:50:04.124Z,1.40
2019-05-15T18:52:20.358Z,1.20
2019-05-15T18:54:58.702Z,1.50
2019-05-15T18:57:38.284Z,1.20
2019-05-15T19:00:08.805Z,1.50
2019-05-15T19:02:41.914Z,1.70
2019-05-15T19:05:11.202Z,1.50
2019-05-15T19:07:40.771Z,1.50
2019-05-15T19:10:10.767Z,1.50
2019-05-15T19:12:39.767Z,1.93
2019-05-15T19:15:09.535Z,1.30
2019-05-15T19:17:42.486Z,1.37
2019-05-15T19:20:11.595Z,1.60
2019-05-15T19:22:41.098Z,1.30
2019-05-15T19:25:10.365Z,1.70
2019-05-15T19:27:39.615Z,1.40
2019-05-15T19:30:10.420Z,1.50
2019-05-15T19:32:39.583Z,1.40
2019-05-15T19:35:08.612Z,1.80
2019-05-15T19:37:38.637Z,2.20
2019-05-15T19:40:07.915Z,1.57
2019-05-15T19:42:38.363Z,1.30
2019-05-15T19:45:09.299Z,1.80
2019-05-15T19:47:38.942Z,1.80
2019-05-15T19:50:08.800Z,1.37
2019-05-15T19:52:37.710Z,1.60
2019-05-15T19:55:09.612Z,1.20
2019-05-15T19:57:39.180Z,1.67
2019-05-15T20:00:13.761Z,1.23
2019-05-15T20:02:57.606Z,1.50
2019-05-15T20:05:28.735Z,1.30
2019-05-15T20:07:58.748Z,1.13
2019-05-15T20:10:29.475Z,1.40
2019-05-15T20:13:02.792Z,1.90
2019-05-15T20:15:31.882Z,1.27
2019-05-15T20:18:01.155Z,1.30
2019-05-15T20:20:30.418Z,1.43
2019-05-15T20:23:00.629Z,1.20
2019-05-15T20:25:30.016Z,1.63
2019-05-15T20:28:03.220Z,1.60
2019-05-15T20:30:32.183Z,1.50
2019-05-15T20:33:01.150Z,1.10
2019-05-15T20:35:30.570Z,1.63
2019-05-15T20:37:59.651Z,1.27
2019-05-15T20:40:28.805Z,1.20
2019-05-15T20:42:59.094Z,1.40
2019-05-15T20:45:29.271Z,1.07
2019-05-15T20:47:58.601Z,1.50
2019-05-15T20:50:28.333Z,1.40
2019-05-15T20:52:58.882Z,1.20
2019-05-15T20:55:28.156Z,1.10
2019-05-15T20:57:58.629Z,1.40
2019-05-15T21:00:29.207Z,0.90
2019-05-15T21:02:58.585Z,1.40
2019-05-15T21:05:27.900Z,1.87
2019-05-15T21:07:57.199Z,1.37
2019-05-15T21:10:26.213Z,1.40
2019-05-15T21:12:55.340Z,1.30
2019-05-15T21:15:24.455Z,1.43
2019-05-15T21:17:58.496Z,1.60
2019-05-15T21:20:24.704Z,1.30
2019-05-15T21:22:53.751Z,1.17
2019-05-15T21:25:23.194Z,1.63
2019-05-15T21:27:53.633Z,1.30
2019-05-15T21:30:22.974Z,1.30
2019-05-15T21:32:53.503Z,1.60
2019-05-15T21:35:23.120Z,1.67
2019-05-15T21:37:52.185Z,1.40
2019-05-15T21:40:21.198Z,1.63
2019-05-15T21:42:50.518Z,1.60
2019-05-15T21:45:19.704Z,1.77
2019-05-15T21:47:48.898Z,1.60
2019-05-15T21:50:19.396Z,1.37
2019-05-15T21:52:49.359Z,1.60
2019-05-15T21:55:18.871Z,1.70
2019-05-15T21:57:48.055Z,1.70
2019-05-15T22:00:28.943Z,1.87
2019-05-15T22:02:58.565Z,1.40
2019-05-15T22:05:28.706Z,1.53
2019-05-15T22:08:33.309Z,1.57
2019-05-15T22:11:02.349Z,1.63
2019-05-15T22:13:31.738Z,1.57
2019-05-15T22:16:00.856Z,1.33
2019-05-15T22:18:29.918Z,1.73
2019-05-15T22:20:58.932Z,1.67
2019-05-15T22:23:28.189Z,1.33
2019-05-15T22:25:58.386Z,1.87
2019-05-15T22:28:28.304Z,1.87
2019-05-15T22:30:58.380Z,1.47
2019-05-15T22:33:30.470Z,1.80
2019-05-15T22:35:59.831Z,1.80
2019-05-15T22:38:31.155Z,1.97
2019-05-15T22:41:00.156Z,1.60
2019-05-15T22:43:29.329Z,1.83
2019-05-15T22:45:58.934Z,1.60
2019-05-15T22:48:28.679Z,1.60
2019-05-15T22:50:58.301Z,1.80
2019-05-15T22:53:28.870Z,1.87
2019-05-15T22:55:58.809Z,1.60
2019-05-15T22:58:28.208Z,1.50
2019-05-15T23:00:59.721Z,2.20
2019-05-15T23:03:28.334Z,1.60
2019-05-15T23:05:58.177Z,1.30
2019-05-15T23:08:34.228Z,1.60
2019-05-15T23:11:03.277Z,2.00
2019-05-15T23:13:32.278Z,1.80
2019-05-15T23:16:01.349Z,1.73
2019-05-15T23:18:30.404Z,1.80
2019-05-15T23:20:59.548Z,1.70
2019-05-15T23:23:28.702Z,1.47
2019-05-15T23:25:58.132Z,1.73
2019-05-15T23:28:28.100Z,1.60
2019-05-15T23:30:57.740Z,1.50
2019-05-15T23:33:28.269Z,1.90
2019-05-15T23:35:58.707Z,1.90
2019-05-15T23:38:28.053Z,2.03
2019-05-15T23:40:58.930Z,1.70
2019-05-15T23:43:28.956Z,2.53
2019-05-15T23:46:00.371Z,1.90
2019-05-15T23:48:31.938Z,1.90
2019-05-15T23:51:04.408Z,2.40
2019-05-15T23:53:34.531Z,2.20
2019-05-15T23:56:04.502Z,1.60
2019-05-15T23:58:34.219Z,2.10
